sensor_id;sensor_type;location;lat;lon;timestamp;temperature;humidity
66312;HTU21D;53114;51.138;6.008;2024-02-16T00:02:20;12.02;107.62
66312;HTU21D;53114;51.138;6.008;2024-02-16T00:04:46;11.99;107.20
66312;HTU21D;53114;51.138;6.008;2024-02-16T00:07:11;11.97;107.12
66312;HTU21D;53114;51.138;6.008;2024-02-16T00:09:37;11.91;106.93
66312;HTU21D;53114;51.138;6.008;2024-02-16T00:12:03;11.91;106.63
66312;HTU21D;53114;51.138;6.008;2024-02-16T00:14:29;11.85;106.76
66312;HTU21D;53114;51.138;6.008;2024-02-16T00:16:58;11.77;107.24
66312;HTU21D;53114;51.138;6.008;2024-02-16T00:19:25;11.72;108.04
66312;HTU21D;53114;51.138;6.008;2024-02-16T00:21:52;11.73;108.45
66312;HTU21D;53114;51.138;6.008;2024-02-16T00:24:18;11.77;108.55
66312;HTU21D;53114;51.138;6.008;2024-02-16T00:26:44;11.82;108.34
66312;HTU21D;53114;51.138;6.008;2024-02-16T00:29:11;11.87;107.83
66312;HTU21D;53114;51.138;6.008;2024-02-16T00:31:37;11.88;108.46
66312;HTU21D;53114;51.138;6.008;2024-02-16T00:34:03;11.92;108.94
66312;HTU21D;53114;51.138;6.008;2024-02-16T00:36:29;11.97;109.18
66312;HTU21D;53114;51.138;6.008;2024-02-16T00:38:56;12.03;108.88
66312;HTU21D;53114;51.138;6.008;2024-02-16T00:41:23;12.05;108.78
66312;HTU21D;53114;51.138;6.008;2024-02-16T00:43:49;12.05;108.09
66312;HTU21D;53114;51.138;6.008;2024-02-16T00:46:16;12.07;108.66
66312;HTU21D;53114;51.138;6.008;2024-02-16T00:48:42;12.10;108.91
66312;HTU21D;53114;51.138;6.008;2024-02-16T00:51:08;12.14;109.05
66312;HTU21D;53114;51.138;6.008;2024-02-16T00:53:34;12.17;109.28
66312;HTU21D;53114;51.138;6.008;2024-02-16T00:56:00;12.21;109.02
66312;HTU21D;53114;51.138;6.008;2024-02-16T00:58:26;12.20;108.50
66312;HTU21D;53114;51.138;6.008;2024-02-16T01:00:52;12.21;108.42
66312;HTU21D;53114;51.138;6.008;2024-02-16T01:03:18;12.21;108.72
66312;HTU21D;53114;51.138;6.008;2024-02-16T01:05:44;12.23;108.70
66312;HTU21D;53114;51.138;6.008;2024-02-16T01:08:10;12.29;108.34
66312;HTU21D;53114;51.138;6.008;2024-02-16T01:10:36;12.32;107.78
66312;HTU21D;53114;51.138;6.008;2024-02-16T01:13:02;12.37;107.26
66312;HTU21D;53114;51.138;6.008;2024-02-16T01:15:29;12.40;107.00
66312;HTU21D;53114;51.138;6.008;2024-02-16T01:17:55;12.41;107.19
66312;HTU21D;53114;51.138;6.008;2024-02-16T01:20:21;12.44;107.02
66312;HTU21D;53114;51.138;6.008;2024-02-16T01:22:47;12.47;106.62
66312;HTU21D;53114;51.138;6.008;2024-02-16T01:25:13;12.47;106.78
66312;HTU21D;53114;51.138;6.008;2024-02-16T01:27:39;12.48;107.04
66312;HTU21D;53114;51.138;6.008;2024-02-16T01:30:07;12.49;107.11
66312;HTU21D;53114;51.138;6.008;2024-02-16T01:32:33;12.42;107.24
66312;HTU21D;53114;51.138;6.008;2024-02-16T01:35:00;12.38;108.41
66312;HTU21D;53114;51.138;6.008;2024-02-16T01:37:26;12.31;109.05
66312;HTU21D;53114;51.138;6.008;2024-02-16T01:39:52;12.26;110.42
66312;HTU21D;53114;51.138;6.008;2024-02-16T01:42:18;12.17;111.87
66312;HTU21D;53114;51.138;6.008;2024-02-16T01:44:44;12.15;112.97
66312;HTU21D;53114;51.138;6.008;2024-02-16T01:47:10;12.15;113.82
66312;HTU21D;53114;51.138;6.008;2024-02-16T01:49:36;12.16;113.74
66312;HTU21D;53114;51.138;6.008;2024-02-16T01:52:02;12.10;113.32
66312;HTU21D;53114;51.138;6.008;2024-02-16T01:54:29;12.02;114.49
66312;HTU21D;53114;51.138;6.008;2024-02-16T01:56:55;11.98;115.63
66312;HTU21D;53114;51.138;6.008;2024-02-16T01:59:22;11.98;116.15
66312;HTU21D;53114;51.138;6.008;2024-02-16T02:01:48;12.01;115.96
66312;HTU21D;53114;51.138;6.008;2024-02-16T02:04:14;12.06;115.35
66312;HTU21D;53114;51.138;6.008;2024-02-16T02:06:41;12.12;114.41
66312;HTU21D;53114;51.138;6.008;2024-02-16T02:09:07;12.16;113.48
66312;HTU21D;53114;51.138;6.008;2024-02-16T02:11:34;12.17;113.02
66312;HTU21D;53114;51.138;6.008;2024-02-16T02:14:00;12.16;113.57
66312;HTU21D;53114;51.138;6.008;2024-02-16T02:16:26;12.20;113.40
66312;HTU21D;53114;51.138;6.008;2024-02-16T02:18:52;12.20;113.19
66312;HTU21D;53114;51.138;6.008;2024-02-16T02:21:19;12.18;113.57
66312;HTU21D;53114;51.138;6.008;2024-02-16T02:23:47;12.18;113.91
66312;HTU21D;53114;51.138;6.008;2024-02-16T02:26:16;12.20;113.42
66312;HTU21D;53114;51.138;6.008;2024-02-16T02:28:42;12.19;113.22
66312;HTU21D;53114;51.138;6.008;2024-02-16T02:31:08;12.12;113.00
66312;HTU21D;53114;51.138;6.008;2024-02-16T02:33:34;12.03;114.05
66312;HTU21D;53114;51.138;6.008;2024-02-16T02:36:01;12.00;114.67
66312;HTU21D;53114;51.138;6.008;2024-02-16T02:38:27;11.98;114.77
66312;HTU21D;53114;51.138;6.008;2024-02-16T02:40:53;11.98;114.79
66312;HTU21D;53114;51.138;6.008;2024-02-16T02:43:18;12.00;114.70
66312;HTU21D;53114;51.138;6.008;2024-02-16T02:45:47;12.05;114.26
66312;HTU21D;53114;51.138;6.008;2024-02-16T02:48:13;12.07;113.29
66312;HTU21D;53114;51.138;6.008;2024-02-16T02:50:39;12.06;113.00
66312;HTU21D;53114;51.138;6.008;2024-02-16T02:53:05;12.07;112.58
66312;HTU21D;53114;51.138;6.008;2024-02-16T02:55:31;12.11;112.68
66312;HTU21D;53114;51.138;6.008;2024-02-16T02:57:57;12.13;112.03
66312;HTU21D;53114;51.138;6.008;2024-02-16T03:00:23;12.10;112.03
66312;HTU21D;53114;51.138;6.008;2024-02-16T03:02:51;12.06;112.62
66312;HTU21D;53114;51.138;6.008;2024-02-16T03:05:17;12.06;113.40
66312;HTU21D;53114;51.138;6.008;2024-02-16T03:07:45;12.10;113.27
66312;HTU21D;53114;51.138;6.008;2024-02-16T03:10:11;12.13;113.13
66312;HTU21D;53114;51.138;6.008;2024-02-16T03:12:37;12.14;112.86
66312;HTU21D;53114;51.138;6.008;2024-02-16T03:15:03;12.11;113.31
66312;HTU21D;53114;51.138;6.008;2024-02-16T03:17:29;12.12;113.67
66312;HTU21D;53114;51.138;6.008;2024-02-16T03:19:55;12.12;113.40
66312;HTU21D;53114;51.138;6.008;2024-02-16T03:22:21;12.12;113.83
66312;HTU21D;53114;51.138;6.008;2024-02-16T03:24:47;12.15;113.13
66312;HTU21D;53114;51.138;6.008;2024-02-16T03:27:13;12.15;112.93
66312;HTU21D;53114;51.138;6.008;2024-02-16T03:29:39;12.15;113.16
66312;HTU21D;53114;51.138;6.008;2024-02-16T03:32:05;12.13;112.77
66312;HTU21D;53114;51.138;6.008;2024-02-16T03:34:31;12.08;113.10
66312;HTU21D;53114;51.138;6.008;2024-02-16T03:36:57;12.05;113.48
66312;HTU21D;53114;51.138;6.008;2024-02-16T03:39:24;12.04;113.47
66312;HTU21D;53114;51.138;6.008;2024-02-16T03:41:50;12.04;113.45
66312;HTU21D;53114;51.138;6.008;2024-02-16T03:44:16;12.06;113.03
66312;HTU21D;53114;51.138;6.008;2024-02-16T03:46:42;12.08;112.05
66312;HTU21D;53114;51.138;6.008;2024-02-16T03:49:09;12.10;110.79
66312;HTU21D;53114;51.138;6.008;2024-02-16T03:51:36;12.07;109.67
66312;HTU21D;53114;51.138;6.008;2024-02-16T03:54:03;12.01;109.04
66312;HTU21D;53114;51.138;6.008;2024-02-16T03:56:30;11.93;109.23
66312;HTU21D;53114;51.138;6.008;2024-02-16T03:58:56;11.89;110.04
66312;HTU21D;53114;51.138;6.008;2024-02-16T04:01:22;11.87;110.51
66312;HTU21D;53114;51.138;6.008;2024-02-16T04:03:47;11.87;110.26
66312;HTU21D;53114;51.138;6.008;2024-02-16T04:06:13;11.88;110.08
66312;HTU21D;53114;51.138;6.008;2024-02-16T04:08:39;11.88;109.86
66312;HTU21D;53114;51.138;6.008;2024-02-16T04:11:05;11.90;110.08
66312;HTU21D;53114;51.138;6.008;2024-02-16T04:13:31;11.91;110.19
66312;HTU21D;53114;51.138;6.008;2024-02-16T04:15:58;11.94;110.48
66312;HTU21D;53114;51.138;6.008;2024-02-16T04:18:24;11.94;110.75
66312;HTU21D;53114;51.138;6.008;2024-02-16T04:20:50;11.97;111.61
66312;HTU21D;53114;51.138;6.008;2024-02-16T04:23:15;12.00;111.78
66312;HTU21D;53114;51.138;6.008;2024-02-16T04:25:41;12.01;111.95
66312;HTU21D;53114;51.138;6.008;2024-02-16T04:28:07;12.02;112.06
66312;HTU21D;53114;51.138;6.008;2024-02-16T04:30:33;11.99;112.14
66312;HTU21D;53114;51.138;6.008;2024-02-16T04:32:59;11.97;112.09
66312;HTU21D;53114;51.138;6.008;2024-02-16T04:35:25;11.92;112.05
66312;HTU21D;53114;51.138;6.008;2024-02-16T04:37:51;11.92;112.66
66312;HTU21D;53114;51.138;6.008;2024-02-16T04:40:16;11.92;113.09
66312;HTU21D;53114;51.138;6.008;2024-02-16T04:42:42;11.96;112.97
66312;HTU21D;53114;51.138;6.008;2024-02-16T04:45:11;11.99;112.96
66312;HTU21D;53114;51.138;6.008;2024-02-16T04:47:38;12.00;112.84
66312;HTU21D;53114;51.138;6.008;2024-02-16T04:50:08;12.00;112.97
66312;HTU21D;53114;51.138;6.008;2024-02-16T04:52:36;12.04;112.65
66312;HTU21D;53114;51.138;6.008;2024-02-16T04:55:04;12.06;112.43
66312;HTU21D;53114;51.138;6.008;2024-02-16T04:57:32;12.04;112.13
66312;HTU21D;53114;51.138;6.008;2024-02-16T04:59:58;12.07;112.05
66312;HTU21D;53114;51.138;6.008;2024-02-16T05:02:24;12.08;112.09
66312;HTU21D;53114;51.138;6.008;2024-02-16T05:04:50;12.10;112.06
66312;HTU21D;53114;51.138;6.008;2024-02-16T05:07:16;12.10;111.78
66312;HTU21D;53114;51.138;6.008;2024-02-16T05:09:42;12.10;112.19
66312;HTU21D;53114;51.138;6.008;2024-02-16T05:12:08;12.13;112.37
66312;HTU21D;53114;51.138;6.008;2024-02-16T05:14:35;12.19;112.29
66312;HTU21D;53114;51.138;6.008;2024-02-16T05:17:02;12.25;111.71
66312;HTU21D;53114;51.138;6.008;2024-02-16T05:19:32;12.28;111.27
66312;HTU21D;53114;51.138;6.008;2024-02-16T05:21:59;12.27;111.30
66312;HTU21D;53114;51.138;6.008;2024-02-16T05:24:24;12.30;111.44
66312;HTU21D;53114;51.138;6.008;2024-02-16T05:26:50;12.32;111.32
66312;HTU21D;53114;51.138;6.008;2024-02-16T05:29:17;12.33;111.33
66312;HTU21D;53114;51.138;6.008;2024-02-16T05:31:43;12.36;111.30
66312;HTU21D;53114;51.138;6.008;2024-02-16T05:34:09;12.32;111.61
66312;HTU21D;53114;51.138;6.008;2024-02-16T05:36:35;12.34;112.51
66312;HTU21D;53114;51.138;6.008;2024-02-16T05:39:02;12.36;112.74
66312;HTU21D;53114;51.138;6.008;2024-02-16T05:41:52;12.35;112.95
66312;HTU21D;53114;51.138;6.008;2024-02-16T05:44:19;12.37;113.74
66312;HTU21D;53114;51.138;6.008;2024-02-16T05:46:45;12.41;113.90
66312;HTU21D;53114;51.138;6.008;2024-02-16T05:49:12;12.47;114.16
66312;HTU21D;53114;51.138;6.008;2024-02-16T05:51:39;12.52;113.54
66312;HTU21D;53114;51.138;6.008;2024-02-16T05:54:05;12.56;113.58
66312;HTU21D;53114;51.138;6.008;2024-02-16T05:56:31;12.59;113.26
66312;HTU21D;53114;51.138;6.008;2024-02-16T05:59:03;12.61;113.15
66312;HTU21D;53114;51.138;6.008;2024-02-16T06:01:31;12.64;112.67
66312;HTU21D;53114;51.138;6.008;2024-02-16T06:03:57;12.62;112.48
66312;HTU21D;53114;51.138;6.008;2024-02-16T06:06:23;12.70;112.89
66312;HTU21D;53114;51.138;6.008;2024-02-16T06:08:49;12.77;112.52
66312;HTU21D;53114;51.138;6.008;2024-02-16T06:11:15;12.87;111.50
66312;HTU21D;53114;51.138;6.008;2024-02-16T06:13:41;12.90;110.93
66312;HTU21D;53114;51.138;6.008;2024-02-16T06:16:07;12.91;110.40
66312;HTU21D;53114;51.138;6.008;2024-02-16T06:18:36;12.92;110.65
66312;HTU21D;53114;51.138;6.008;2024-02-16T06:21:02;12.96;110.66
66312;HTU21D;53114;51.138;6.008;2024-02-16T06:23:28;13.01;108.98
66312;HTU21D;53114;51.138;6.008;2024-02-16T06:25:54;13.04;108.56
66312;HTU21D;53114;51.138;6.008;2024-02-16T06:28:20;13.03;107.87
66312;HTU21D;53114;51.138;6.008;2024-02-16T06:30:45;12.99;108.23
66312;HTU21D;53114;51.138;6.008;2024-02-16T06:33:11;13.01;108.27
66312;HTU21D;53114;51.138;6.008;2024-02-16T06:35:37;13.04;107.52
66312;HTU21D;53114;51.138;6.008;2024-02-16T06:38:03;13.04;107.26
66312;HTU21D;53114;51.138;6.008;2024-02-16T06:40:29;13.02;106.67
66312;HTU21D;53114;51.138;6.008;2024-02-16T06:42:55;13.01;107.35
66312;HTU21D;53114;51.138;6.008;2024-02-16T06:45:22;12.99;107.37
66312;HTU21D;53114;51.138;6.008;2024-02-16T06:47:49;13.05;106.42
66312;HTU21D;53114;51.138;6.008;2024-02-16T06:50:15;13.09;107.15
66312;HTU21D;53114;51.138;6.008;2024-02-16T06:52:41;13.19;105.96
66312;HTU21D;53114;51.138;6.008;2024-02-16T06:55:07;13.26;105.18
66312;HTU21D;53114;51.138;6.008;2024-02-16T06:57:33;13.35;104.26
66312;HTU21D;53114;51.138;6.008;2024-02-16T06:59:59;13.36;100.83
66312;HTU21D;53114;51.138;6.008;2024-02-16T07:02:25;13.48;103.99
66312;HTU21D;53114;51.138;6.008;2024-02-16T07:04:51;13.61;100.41
66312;HTU21D;53114;51.138;6.008;2024-02-16T07:07:17;13.69;100.80
66312;HTU21D;53114;51.138;6.008;2024-02-16T07:09:44;13.78;98.64
66312;HTU21D;53114;51.138;6.008;2024-02-16T07:12:10;13.88;96.65
66312;HTU21D;53114;51.138;6.008;2024-02-16T07:14:38;13.90;97.87
66312;HTU21D;53114;51.138;6.008;2024-02-16T07:17:04;13.94;95.45
66312;HTU21D;53114;51.138;6.008;2024-02-16T07:19:33;13.98;94.29
66312;HTU21D;53114;51.138;6.008;2024-02-16T07:21:58;14.11;96.29
66312;HTU21D;53114;51.138;6.008;2024-02-16T07:24:24;14.19;94.81
66312;HTU21D;53114;51.138;6.008;2024-02-16T07:26:50;14.32;94.23
66312;HTU21D;53114;51.138;6.008;2024-02-16T07:29:16;14.29;88.58
66312;HTU21D;53114;51.138;6.008;2024-02-16T07:31:42;14.32;87.41
66312;HTU21D;53114;51.138;6.008;2024-02-16T07:34:08;14.41;91.09
66312;HTU21D;53114;51.138;6.008;2024-02-16T07:36:34;14.40;90.35
66312;HTU21D;53114;51.138;6.008;2024-02-16T07:39:01;14.51;89.86
66312;HTU21D;53114;51.138;6.008;2024-02-16T07:41:30;14.55;85.26
66312;HTU21D;53114;51.138;6.008;2024-02-16T07:43:56;14.63;90.59
66312;HTU21D;53114;51.138;6.008;2024-02-16T07:46:22;14.65;87.37
66312;HTU21D;53114;51.138;6.008;2024-02-16T07:48:48;14.74;87.65
66312;HTU21D;53114;51.138;6.008;2024-02-16T07:51:14;14.80;87.14
66312;HTU21D;53114;51.138;6.008;2024-02-16T07:53:40;14.78;82.77
66312;HTU21D;53114;51.138;6.008;2024-02-16T07:56:07;14.93;86.91
66312;HTU21D;53114;51.138;6.008;2024-02-16T07:58:33;14.93;84.34
66312;HTU21D;53114;51.138;6.008;2024-02-16T08:00:59;14.99;86.72
66312;HTU21D;53114;51.138;6.008;2024-02-16T08:03:25;15.00;85.58
66312;HTU21D;53114;51.138;6.008;2024-02-16T08:05:52;15.07;86.32
66312;HTU21D;53114;51.138;6.008;2024-02-16T08:08:17;15.03;80.27
66312;HTU21D;53114;51.138;6.008;2024-02-16T08:10:43;15.15;84.87
66312;HTU21D;53114;51.138;6.008;2024-02-16T08:13:10;15.16;85.03
66312;HTU21D;53114;51.138;6.008;2024-02-16T08:15:36;15.11;85.11
66312;HTU21D;53114;51.138;6.008;2024-02-16T08:18:02;15.12;84.65
66312;HTU21D;53114;51.138;6.008;2024-02-16T08:20:28;15.09;80.67
66312;HTU21D;53114;51.138;6.008;2024-02-16T08:22:54;15.09;82.11
66312;HTU21D;53114;51.138;6.008;2024-02-16T08:25:20;15.14;84.97
66312;HTU21D;53114;51.138;6.008;2024-02-16T08:27:46;15.04;82.08
66312;HTU21D;53114;51.138;6.008;2024-02-16T08:30:12;15.08;84.71
66312;HTU21D;53114;51.138;6.008;2024-02-16T08:32:39;15.07;83.80
66312;HTU21D;53114;51.138;6.008;2024-02-16T08:35:05;15.13;84.74
66312;HTU21D;53114;51.138;6.008;2024-02-16T08:37:31;15.18;84.20
66312;HTU21D;53114;51.138;6.008;2024-02-16T08:39:57;15.19;83.32
66312;HTU21D;53114;51.138;6.008;2024-02-16T08:42:23;15.25;84.42
66312;HTU21D;53114;51.138;6.008;2024-02-16T08:44:49;15.18;84.22
66312;HTU21D;53114;51.138;6.008;2024-02-16T08:47:15;15.23;84.07
66312;HTU21D;53114;51.138;6.008;2024-02-16T08:49:42;15.28;84.66
66312;HTU21D;53114;51.138;6.008;2024-02-16T08:52:08;15.30;84.08
66312;HTU21D;53114;51.138;6.008;2024-02-16T08:54:34;15.36;83.38
66312;HTU21D;53114;51.138;6.008;2024-02-16T08:57:00;15.42;83.94
66312;HTU21D;53114;51.138;6.008;2024-02-16T08:59:26;15.43;82.10
66312;HTU21D;53114;51.138;6.008;2024-02-16T09:01:54;15.42;84.13
66312;HTU21D;53114;51.138;6.008;2024-02-16T09:04:20;15.52;84.12
66312;HTU21D;53114;51.138;6.008;2024-02-16T09:06:45;15.53;83.56
66312;HTU21D;53114;51.138;6.008;2024-02-16T09:09:11;15.58;83.57
66312;HTU21D;53114;51.138;6.008;2024-02-16T09:11:37;15.63;83.22
66312;HTU21D;53114;51.138;6.008;2024-02-16T09:14:03;15.66;82.81
66312;HTU21D;53114;51.138;6.008;2024-02-16T09:16:29;15.69;81.69
66312;HTU21D;53114;51.138;6.008;2024-02-16T09:18:58;15.65;82.78
66312;HTU21D;53114;51.138;6.008;2024-02-16T09:21:24;15.71;82.75
66312;HTU21D;53114;51.138;6.008;2024-02-16T09:23:52;15.76;81.58
66312;HTU21D;53114;51.138;6.008;2024-02-16T09:26:18;15.78;81.20
66312;HTU21D;53114;51.138;6.008;2024-02-16T09:28:44;15.82;82.29
66312;HTU21D;53114;51.138;6.008;2024-02-16T09:31:14;15.87;81.21
66312;HTU21D;53114;51.138;6.008;2024-02-16T09:33:40;15.82;80.00
66312;HTU21D;53114;51.138;6.008;2024-02-16T09:36:06;15.86;81.22
66312;HTU21D;53114;51.138;6.008;2024-02-16T09:38:32;15.86;81.47
66312;HTU21D;53114;51.138;6.008;2024-02-16T09:40:58;15.85;81.94
66312;HTU21D;53114;51.138;6.008;2024-02-16T09:43:29;15.75;79.62
66312;HTU21D;53114;51.138;6.008;2024-02-16T09:45:57;15.83;80.89
66312;HTU21D;53114;51.138;6.008;2024-02-16T09:48:25;15.87;82.13
66312;HTU21D;53114;51.138;6.008;2024-02-16T09:50:57;15.93;82.15
66312;HTU21D;53114;51.138;6.008;2024-02-16T09:53:28;15.92;79.98
66312;HTU21D;53114;51.138;6.008;2024-02-16T09:55:55;15.91;81.62
66312;HTU21D;53114;51.138;6.008;2024-02-16T09:58:21;15.99;82.46
66312;HTU21D;53114;51.138;6.008;2024-02-16T10:00:51;16.08;82.25
66312;HTU21D;53114;51.138;6.008;2024-02-16T10:03:28;16.10;81.94
66312;HTU21D;53114;51.138;6.008;2024-02-16T10:06:09;16.11;81.65
66312;HTU21D;53114;51.138;6.008;2024-02-16T10:08:55;16.14;78.83
66312;HTU21D;53114;51.138;6.008;2024-02-16T10:11:25;16.20;81.72
66312;HTU21D;53114;51.138;6.008;2024-02-16T10:14:03;16.19;79.75
66312;HTU21D;53114;51.138;6.008;2024-02-16T10:16:30;16.22;80.50
66312;HTU21D;53114;51.138;6.008;2024-02-16T10:19:04;16.30;81.62
66312;HTU21D;53114;51.138;6.008;2024-02-16T10:21:30;16.35;81.19
66312;HTU21D;53114;51.138;6.008;2024-02-16T10:26:23;16.36;81.05
66312;HTU21D;53114;51.138;6.008;2024-02-16T10:28:55;16.28;81.07
66312;HTU21D;53114;51.138;6.008;2024-02-16T10:31:24;16.24;82.11
66312;HTU21D;53114;51.138;6.008;2024-02-16T10:33:57;16.18;81.71
66312;HTU21D;53114;51.138;6.008;2024-02-16T10:36:24;16.15;83.28
66312;HTU21D;53114;51.138;6.008;2024-02-16T10:38:52;16.15;82.44
66312;HTU21D;53114;51.138;6.008;2024-02-16T10:41:19;16.13;83.20
66312;HTU21D;53114;51.138;6.008;2024-02-16T10:43:48;16.10;84.28
66312;HTU21D;53114;51.138;6.008;2024-02-16T10:46:18;16.06;85.45
66312;HTU21D;53114;51.138;6.008;2024-02-16T10:48:44;16.13;86.63
66312;HTU21D;53114;51.138;6.008;2024-02-16T10:51:12;16.15;87.47
66312;HTU21D;53114;51.138;6.008;2024-02-16T10:53:41;16.14;86.85
66312;HTU21D;53114;51.138;6.008;2024-02-16T10:56:07;16.12;87.61
66312;HTU21D;53114;51.138;6.008;2024-02-16T10:58:34;16.15;87.91
66312;HTU21D;53114;51.138;6.008;2024-02-16T11:01:09;16.14;86.80
66312;HTU21D;53114;51.138;6.008;2024-02-16T11:03:39;16.13;87.29
66312;HTU21D;53114;51.138;6.008;2024-02-16T11:06:15;16.10;88.18
66312;HTU21D;53114;51.138;6.008;2024-02-16T11:08:42;16.07;88.06
66312;HTU21D;53114;51.138;6.008;2024-02-16T11:11:08;16.05;88.76
66312;HTU21D;53114;51.138;6.008;2024-02-16T11:13:38;16.07;89.22
66312;HTU21D;53114;51.138;6.008;2024-02-16T11:16:09;16.12;88.95
66312;HTU21D;53114;51.138;6.008;2024-02-16T11:18:41;16.13;88.91
66312;HTU21D;53114;51.138;6.008;2024-02-16T11:21:16;16.04;89.10
66312;HTU21D;53114;51.138;6.008;2024-02-16T11:23:44;16.02;89.71
66312;HTU21D;53114;51.138;6.008;2024-02-16T11:26:11;16.03;89.76
66312;HTU21D;53114;51.138;6.008;2024-02-16T11:28:40;16.03;90.04
66312;HTU21D;53114;51.138;6.008;2024-02-16T11:31:07;16.00;90.55
66312;HTU21D;53114;51.138;6.008;2024-02-16T11:33:33;15.91;91.53
66312;HTU21D;53114;51.138;6.008;2024-02-16T11:36:01;15.87;91.72
66312;HTU21D;53114;51.138;6.008;2024-02-16T11:38:27;15.82;92.64
66312;HTU21D;53114;51.138;6.008;2024-02-16T11:43:25;15.72;93.85
66312;HTU21D;53114;51.138;6.008;2024-02-16T11:45:52;15.72;94.27
66312;HTU21D;53114;51.138;6.008;2024-02-16T11:48:27;15.62;95.89
66312;HTU21D;53114;51.138;6.008;2024-02-16T11:51:03;15.63;95.66
66312;HTU21D;53114;51.138;6.008;2024-02-16T11:53:31;15.60;96.82
66312;HTU21D;53114;51.138;6.008;2024-02-16T11:55:57;15.58;97.45
66312;HTU21D;53114;51.138;6.008;2024-02-16T11:58:24;15.60;98.37
66312;HTU21D;53114;51.138;6.008;2024-02-16T12:00:51;15.43;102.93
66312;HTU21D;53114;51.138;6.008;2024-02-16T12:03:22;15.47;101.47
66312;HTU21D;53114;51.138;6.008;2024-02-16T12:05:54;15.38;105.15
66312;HTU21D;53114;51.138;6.008;2024-02-16T12:08:21;15.38;102.59
66312;HTU21D;53114;51.138;6.008;2024-02-16T12:10:48;15.34;104.28
66312;HTU21D;53114;51.138;6.008;2024-02-16T12:13:19;15.34;104.92
66312;HTU21D;53114;51.138;6.008;2024-02-16T12:15:47;15.34;105.18
66312;HTU21D;53114;51.138;6.008;2024-02-16T12:18:23;15.37;105.47
66312;HTU21D;53114;51.138;6.008;2024-02-16T12:21:02;15.32;106.79
66312;HTU21D;53114;51.138;6.008;2024-02-16T12:23:30;15.36;106.21
66312;HTU21D;53114;51.138;6.008;2024-02-16T12:26:02;15.38;106.46
66312;HTU21D;53114;51.138;6.008;2024-02-16T12:28:31;15.37;106.80
66312;HTU21D;53114;51.138;6.008;2024-02-16T12:31:01;15.39;107.04
66312;HTU21D;53114;51.138;6.008;2024-02-16T12:33:27;15.40;107.24
66312;HTU21D;53114;51.138;6.008;2024-02-16T12:35:53;15.40;107.31
66312;HTU21D;53114;51.138;6.008;2024-02-16T12:38:19;15.32;108.20
66312;HTU21D;53114;51.138;6.008;2024-02-16T12:40:49;15.30;108.81
66312;HTU21D;53114;51.138;6.008;2024-02-16T12:43:16;15.33;108.49
66312;HTU21D;53114;51.138;6.008;2024-02-16T12:45:42;15.38;108.28
66312;HTU21D;53114;51.138;6.008;2024-02-16T12:48:08;15.41;107.99
66312;HTU21D;53114;51.138;6.008;2024-02-16T12:50:40;15.40;108.00
66312;HTU21D;53114;51.138;6.008;2024-02-16T12:53:08;15.38;108.66
66312;HTU21D;53114;51.138;6.008;2024-02-16T12:55:33;15.33;109.46
66312;HTU21D;53114;51.138;6.008;2024-02-16T12:57:59;15.25;112.70
66312;HTU21D;53114;51.138;6.008;2024-02-16T13:00:25;15.23;112.69
66312;HTU21D;53114;51.138;6.008;2024-02-16T13:02:51;15.19;112.29
66312;HTU21D;53114;51.138;6.008;2024-02-16T13:05:17;15.15;114.51
66312;HTU21D;53114;51.138;6.008;2024-02-16T13:07:43;15.15;114.90
66312;HTU21D;53114;51.138;6.008;2024-02-16T13:10:09;15.15;116.30
66312;HTU21D;53114;51.138;6.008;2024-02-16T13:12:36;15.13;117.83
66312;HTU21D;53114;51.138;6.008;2024-02-16T13:15:04;15.08;118.99
66312;HTU21D;53114;51.138;6.008;2024-02-16T13:17:31;14.98;118.99
66312;HTU21D;53114;51.138;6.008;2024-02-16T13:19:56;14.91;118.99
66312;HTU21D;53114;51.138;6.008;2024-02-16T13:22:38;14.85;118.99
66312;HTU21D;53114;51.138;6.008;2024-02-16T13:25:05;14.78;118.99
66312;HTU21D;53114;51.138;6.008;2024-02-16T13:27:35;14.77;118.99
66312;HTU21D;53114;51.138;6.008;2024-02-16T13:30:01;14.77;118.99
66312;HTU21D;53114;51.138;6.008;2024-02-16T13:32:27;14.74;118.99
66312;HTU21D;53114;51.138;6.008;2024-02-16T13:34:53;14.69;118.99
66312;HTU21D;53114;51.138;6.008;2024-02-16T13:37:19;14.69;118.99
66312;HTU21D;53114;51.138;6.008;2024-02-16T13:39:45;14.68;118.99
66312;HTU21D;53114;51.138;6.008;2024-02-16T13:42:12;14.67;118.99
66312;HTU21D;53114;51.138;6.008;2024-02-16T13:44:39;14.68;118.99
66312;HTU21D;53114;51.138;6.008;2024-02-16T13:47:05;14.70;118.99
66312;HTU21D;53114;51.138;6.008;2024-02-16T13:49:31;14.70;118.99
66312;HTU21D;53114;51.138;6.008;2024-02-16T13:51:57;14.72;118.99
66312;HTU21D;53114;51.138;6.008;2024-02-16T13:54:27;14.75;118.99
66312;HTU21D;53114;51.138;6.008;2024-02-16T13:56:53;14.78;118.99
66312;HTU21D;53114;51.138;6.008;2024-02-16T13:59:19;14.77;118.99
66312;HTU21D;53114;51.138;6.008;2024-02-16T14:01:46;14.74;118.99
66312;HTU21D;53114;51.138;6.008;2024-02-16T14:04:13;14.77;118.99
66312;HTU21D;53114;51.138;6.008;2024-02-16T14:06:39;14.73;118.99
66312;HTU21D;53114;51.138;6.008;2024-02-16T14:09:05;14.67;118.99
66312;HTU21D;53114;51.138;6.008;2024-02-16T14:11:37;14.67;118.99
66312;HTU21D;53114;51.138;6.008;2024-02-16T14:14:04;14.69;118.99
66312;HTU21D;53114;51.138;6.008;2024-02-16T14:16:30;14.63;118.99
66312;HTU21D;53114;51.138;6.008;2024-02-16T14:18:56;14.53;118.99
66312;HTU21D;53114;51.138;6.008;2024-02-16T14:21:22;14.50;118.99
66312;HTU21D;53114;51.138;6.008;2024-02-16T14:23:48;14.45;118.99
66312;HTU21D;53114;51.138;6.008;2024-02-16T14:26:14;14.44;118.99
66312;HTU21D;53114;51.138;6.008;2024-02-16T14:28:40;14.44;118.99
66312;HTU21D;53114;51.138;6.008;2024-02-16T14:31:06;14.44;118.99
66312;HTU21D;53114;51.138;6.008;2024-02-16T14:33:32;14.42;118.99
66312;HTU21D;53114;51.138;6.008;2024-02-16T14:35:58;14.42;118.99
66312;HTU21D;53114;51.138;6.008;2024-02-16T14:38:24;14.40;118.99
66312;HTU21D;53114;51.138;6.008;2024-02-16T14:40:50;14.38;118.99
66312;HTU21D;53114;51.138;6.008;2024-02-16T14:43:16;14.37;118.99
66312;HTU21D;53114;51.138;6.008;2024-02-16T14:45:42;14.36;118.99
66312;HTU21D;53114;51.138;6.008;2024-02-16T14:48:08;14.41;118.99
66312;HTU21D;53114;51.138;6.008;2024-02-16T14:50:34;14.47;118.99
66312;HTU21D;53114;51.138;6.008;2024-02-16T14:53:01;14.47;118.99
66312;HTU21D;53114;51.138;6.008;2024-02-16T14:55:27;14.43;118.99
66312;HTU21D;53114;51.138;6.008;2024-02-16T14:57:53;14.41;118.99
66312;HTU21D;53114;51.138;6.008;2024-02-16T15:00:20;14.41;118.99
66312;HTU21D;53114;51.138;6.008;2024-02-16T15:02:46;14.40;118.99
66312;HTU21D;53114;51.138;6.008;2024-02-16T15:05:13;14.35;118.99
66312;HTU21D;53114;51.138;6.008;2024-02-16T15:07:39;14.30;118.99
66312;HTU21D;53114;51.138;6.008;2024-02-16T15:10:05;14.27;118.99